This is the latest recevied weather packets stored in our database for station/object ENRA. If no packets are shown the sender has not sent any weather packets the latest 10 day(s).
| Time | Temp. | Humidity | Pressure | Rain* | Wind** | Luminosity | Snow |
|---|---|---|---|---|---|---|---|
| 1788579186 | 8.89° C | 93% | 999 hPa | - | - | - | - |
| 1788577387 | 10° C | 87% | 999 hPa | - | - | - | - |
| 1788575587 | 10° C | 87% | 999 hPa | - | - | - | - |
| 1788573788 | 10° C | 93% | 999 hPa | - | - | - | - |
| 1788571987 | 10° C | 93% | 999 hPa | - | - | - | - |
| 1788570188 | 10° C | 87% | 999 hPa | - | - | - | - |
| 1788568387 | 10.56° C | 87% | 999 hPa | - | - | - | - |
| 1788566588 | 10.56° C | 81% | 999 hPa | - | - | - | - |
| 1788564787 | 12.78° C | 71% | 999 hPa | - | - | - | - |
| 1788562988 | 10.56° C | 87% | 999 hPa | - | - | - | - |
| 1788561188 | 10.56° C | 87% | 999 hPa | - | - | - | - |
| 1788559387 | 10.56° C | 87% | 999 hPa | - | - | - | - |
| 1788557587 | 10.56° C | 81% | 999 hPa | - | - | - | - |
| 1788553987 | 11.67° C | 81% | 999 hPa | - | - | - | - |
| 1788552186 | 11.67° C | 76% | 999 hPa | - | - | - | - |
| 1788550388 | 10° C | 93% | 999 hPa | - | - | - | - |
| 1788548588 | 10.56° C | 93% | 999 hPa | - | - | - | - |
| 1788546788 | 11.67° C | 87% | 998 hPa | - | - | - | - |
| 1788544988 | 12.78° C | 81% | 998 hPa | - | - | - | - |
| 1788543188 | 13.89° C | 76% | 998 hPa | - | - | - | - |
| 1788541388 | 15° C | 72% | 998 hPa | - | - | - | - |
| 1788539588 | 15° C | 67% | 998 hPa | - | - | - | - |
| 1788537788 | 15.56° C | 63% | 998 hPa | - | - | - | - |
| 1788535988 | 17.78° C | 51% | 998 hPa | - | - | - | - |
| 1788534188 | 15.56° C | 63% | 998 hPa | - | - | - | - |
* Rain since midnight (hover to see other rain measurements)
** Current wind speed in m/s (hover to see current wind gust speed)